Time;durP1;ratioP1;P1;durP2;ratioP2;P2;SDS_P1;SDS_P2;PMS_P1;PMS_P2;Temp;Humidity;BMP_temperature;BMP_pressure;BME280_temperature;BME280_humidity;BME280_pressure;Samples;Min_cycle;Max_cycle;Signal;HPM_P1;HPM_P2
2023/07/25 00:02:24;;;;;;;3.22;1.92;;;23.10;63.90;;;;;;4944857;28;20027;-53
2023/07/25 00:04:50;;;;;;;3.00;2.00;;;23.10;63.80;;;;;;4942785;28;20350;-59
2023/07/25 00:07:15;;;;;;;3.10;2.28;;;23.10;63.80;;;;;;4943192;28;20031;-55
2023/07/25 00:09:41;;;;;;;2.50;2.10;;;23.10;63.70;;;;;;4949500;28;20561;-58
2023/07/25 00:12:07;;;;;;;2.28;1.60;;;23.10;63.60;;;;;;4963661;28;20403;-51
2023/07/25 00:14:33;;;;;;;2.55;1.77;;;23.10;63.70;;;;;;4972169;28;20039;-55
2023/07/25 00:16:59;;;;;;;2.45;1.70;;;23.10;63.60;;;;;;4957508;28;20034;-54
2023/07/25 00:19:25;;;;;;;3.35;2.08;;;23.10;63.70;;;;;;4959799;28;20199;-53
2023/07/25 00:21:51;;;;;;;2.55;1.70;;;23.10;63.80;;;;;;4960642;28;20393;-55
2023/07/25 00:24:16;;;;;;;3.15;2.20;;;23.10;63.60;;;;;;4963278;28;20517;-55
2023/07/25 00:26:42;;;;;;;3.33;2.20;;;23.10;63.60;;;;;;4962557;28;20031;-54
2023/07/25 00:29:07;;;;;;;3.78;2.00;;;23.10;63.60;;;;;;4963134;28;20082;-57
2023/07/25 00:31:33;;;;;;;2.30;1.75;;;23.10;63.60;;;;;;4963056;28;20034;-52
2023/07/25 00:33:58;;;;;;;3.25;1.90;;;23.10;63.60;;;;;;4962985;28;20125;-56
2023/07/25 00:36:24;;;;;;;2.40;1.63;;;23.10;63.50;;;;;;4963197;28;20126;-58
2023/07/25 00:38:49;;;;;;;3.65;1.80;;;23.10;63.60;;;;;;4961279;28;20027;-56
2023/07/25 00:41:15;;;;;;;2.03;1.70;;;23.10;63.60;;;;;;4962950;28;20222;-53
2023/07/25 00:43:40;;;;;;;3.78;1.90;;;23.10;63.50;;;;;;4961542;28;20034;-54
2023/07/25 00:46:06;;;;;;;3.33;2.20;;;23.10;63.60;;;;;;4962926;28;20046;-58
2023/07/25 00:48:32;;;;;;;3.22;2.00;;;23.10;63.40;;;;;;4962722;28;20053;-54
2023/07/25 00:50:57;;;;;;;3.17;1.83;;;23.10;63.50;;;;;;4971743;28;20043;-53
2023/07/25 00:53:25;;;;;;;2.13;1.75;;;23.10;63.40;;;;;;4960231;28;20053;-55
2023/07/25 00:55:50;;;;;;;2.75;1.55;;;23.10;63.50;;;;;;4958323;28;20038;-57
2023/07/25 00:58:17;;;;;;;2.17;1.98;;;23.10;63.40;;;;;;4971282;23;20037;-55
2023/07/25 01:00:44;;;;;;;2.20;1.83;;;23.10;63.40;;;;;;4969763;28;20035;-58
2023/07/25 01:03:10;;;;;;;3.88;1.75;;;23.10;63.40;;;;;;4966187;28;20023;-58
2023/07/25 01:05:41;;;;;;;2.38;1.50;;;23.10;63.40;;;;;;4978307;28;20037;-58
2023/07/25 01:08:07;;;;;;;2.30;1.50;;;23.10;63.40;;;;;;4977231;28;20022;-58
2023/07/25 01:10:34;;;;;;;1.77;1.42;;;23.10;63.30;;;;;;4976874;28;20026;-59
2023/07/25 01:13:00;;;;;;;1.95;1.40;;;23.10;63.30;;;;;;4975929;28;20034;-58
2023/07/25 01:15:27;;;;;;;2.25;1.88;;;23.10;63.30;;;;;;4973626;28;20042;-57
2023/07/25 01:17:53;;;;;;;2.72;1.73;;;23.10;63.40;;;;;;4976106;28;20056;-57
2023/07/25 01:20:19;;;;;;;2.60;2.20;;;23.10;63.30;;;;;;4975654;28;20038;-58
2023/07/25 01:22:46;;;;;;;1.77;1.50;;;23.10;63.20;;;;;;4970590;28;20038;-58
2023/07/25 01:25:13;;;;;;;2.63;1.77;;;23.10;63.20;;;;;;4979932;28;20104;-57
2023/07/25 01:27:39;;;;;;;2.08;1.35;;;23.10;63.20;;;;;;4974783;28;20136;-54
2023/07/25 01:30:05;;;;;;;3.33;1.60;;;23.10;63.20;;;;;;4979362;28;20121;-53
2023/07/25 01:32:31;;;;;;;2.38;1.40;;;23.10;63.20;;;;;;4977500;28;20034;-56
2023/07/25 01:34:56;;;;;;;5.00;1.60;;;23.10;63.20;;;;;;4976203;28;20046;-56
2023/07/25 01:37:22;;;;;;;2.83;1.73;;;23.10;63.20;;;;;;4977622;28;20030;-58
2023/07/25 01:39:47;;;;;;;2.17;1.30;;;23.00;63.10;;;;;;4978068;28;20117;-57
2023/07/25 01:42:13;;;;;;;3.13;1.90;;;23.10;63.40;;;;;;4971498;28;24992;-57
2023/07/25 01:44:39;;;;;;;1.58;1.00;;;23.00;63.20;;;;;;4951188;28;20110;-56
2023/07/25 01:47:04;;;;;;;2.58;1.38;;;23.10;63.20;;;;;;4956016;28;20456;-58
2023/07/25 01:49:30;;;;;;;1.92;1.40;;;23.10;63.00;;;;;;4952435;28;20059;-57
2023/07/25 01:51:55;;;;;;;2.05;1.40;;;23.10;63.20;;;;;;4957655;28;20110;-58
2023/07/25 01:54:22;;;;;;;2.35;1.65;;;23.10;63.10;;;;;;4959813;28;20129;-54
2023/07/25 01:56:47;;;;;;;1.85;1.40;;;23.10;63.20;;;;;;4956855;28;20055;-57
2023/07/25 01:59:13;;;;;;;2.22;1.52;;;23.00;63.10;;;;;;4959274;28;20065;-55
2023/07/25 02:01:38;;;;;;;1.83;1.50;;;23.00;63.10;;;;;;4954942;28;20035;-59
2023/07/25 02:04:04;;;;;;;3.72;1.45;;;23.10;63.10;;;;;;4956490;28;20031;-56
2023/07/25 02:06:29;;;;;;;2.08;1.40;;;23.00;63.00;;;;;;4954730;28;20046;-57
2023/07/25 02:08:55;;;;;;;1.83;1.40;;;23.00;63.00;;;;;;4957170;28;20133;-55
2023/07/25 02:11:21;;;;;;;2.00;1.55;;;23.00;63.10;;;;;;4953776;28;20106;-57
2023/07/25 02:13:46;;;;;;;2.03;1.27;;;23.00;63.10;;;;;;4951573;28;20031;-54
2023/07/25 02:16:12;;;;;;;2.13;1.20;;;23.00;63.10;;;;;;4952817;28;20122;-56
2023/07/25 02:18:37;;;;;;;3.75;1.35;;;23.10;63.10;;;;;;4951200;28;20404;-59
2023/07/25 02:21:03;;;;;;;2.22;1.40;;;23.00;63.10;;;;;;4956491;28;20035;-59
2023/07/25 02:23:29;;;;;;;1.98;1.08;;;23.00;63.20;;;;;;4957668;28;20476;-56
2023/07/25 02:25:54;;;;;;;1.42;1.30;;;23.00;63.20;;;;;;4957558;28;20038;-58
2023/07/25 02:28:20;;;;;;;2.28;1.50;;;23.00;63.20;;;;;;4959992;28;20047;-58
2023/07/25 02:30:46;;;;;;;3.15;1.70;;;23.00;63.20;;;;;;4956918;28;20026;-58
2023/07/25 02:33:12;;;;;;;3.28;1.40;;;23.00;63.20;;;;;;4956509;28;20030;-57
2023/07/25 02:35:38;;;;;;;1.90;1.42;;;23.10;63.20;;;;;;4954270;28;20077;-57
2023/07/25 02:38:03;;;;;;;2.13;1.13;;;23.00;63.10;;;;;;4962127;28;20464;-59
2023/07/25 02:40:29;;;;;;;1.92;1.23;;;23.00;63.00;;;;;;4969636;28;20045;-56
2023/07/25 02:42:54;;;;;;;3.03;1.67;;;23.00;63.00;;;;;;4973171;28;20453;-59
2023/07/25 02:45:20;;;;;;;2.47;1.48;;;23.00;63.10;;;;;;4975323;28;20480;-58
2023/07/25 02:47:45;;;;;;;2.85;1.55;;;23.00;63.00;;;;;;4975828;28;20089;-57
2023/07/25 02:50:11;;;;;;;1.58;1.13;;;23.00;63.00;;;;;;4976118;28;20039;-54
2023/07/25 02:52:36;;;;;;;1.83;1.30;;;23.00;63.00;;;;;;4976753;28;20071;-55
2023/07/25 02:55:03;;;;;;;4.30;1.30;;;23.00;63.00;;;;;;4975173;28;20034;-55
2023/07/25 02:57:28;;;;;;;1.63;1.33;;;23.00;63.00;;;;;;4975245;28;20022;-57
2023/07/25 02:59:54;;;;;;;1.73;1.08;;;23.00;63.00;;;;;;4940358;28;1058896;-58
2023/07/25 03:02:19;;;;;;;3.28;1.30;;;23.00;63.00;;;;;;4975626;28;20049;-54
2023/07/25 03:04:45;;;;;;;1.73;1.35;;;23.00;63.00;;;;;;4974196;28;20093;-59
2023/07/25 03:07:10;;;;;;;1.30;1.17;;;23.00;63.00;;;;;;4974877;28;20042;-58
2023/07/25 03:09:37;;;;;;;3.67;1.50;;;23.00;62.90;;;;;;4973252;28;20035;-55
2023/07/25 03:12:04;;;;;;;3.55;1.48;;;23.00;63.60;;;;;;4974050;28;20035;-58
2023/07/25 03:14:29;;;;;;;1.52;1.38;;;23.00;63.00;;;;;;4970812;28;20041;-54
2023/07/25 03:16:55;;;;;;;1.13;0.95;;;23.00;62.90;;;;;;4975643;28;20057;-58
2023/07/25 03:19:20;;;;;;;1.35;1.10;;;23.00;63.00;;;;;;4980225;28;20459;-58
2023/07/25 03:21:46;;;;;;;1.77;1.30;;;23.00;63.00;;;;;;4978637;28;21673;-58
2023/07/25 03:24:11;;;;;;;2.33;0.95;;;23.00;62.90;;;;;;4978260;28;20047;-56
2023/07/25 03:26:37;;;;;;;2.38;1.35;;;23.00;63.00;;;;;;4977186;28;20039;-57
2023/07/25 03:29:03;;;;;;;2.10;1.08;;;23.00;63.00;;;;;;4978383;28;20027;-57
2023/07/25 03:31:28;;;;;;;1.33;1.23;;;23.00;63.00;;;;;;4976768;28;20034;-54
2023/07/25 03:33:54;;;;;;;1.90;1.30;;;23.00;62.90;;;;;;4981438;28;20050;-57
2023/07/25 03:36:19;;;;;;;2.30;1.30;;;22.90;62.80;;;;;;4977631;28;20033;-58
2023/07/25 03:38:45;;;;;;;1.65;1.10;;;23.00;62.80;;;;;;4978465;28;20031;-54
2023/07/25 03:41:10;;;;;;;1.75;1.30;;;23.00;62.80;;;;;;4978196;28;20034;-56
2023/07/25 03:43:36;;;;;;;2.03;1.30;;;22.90;62.80;;;;;;4975022;28;20026;-55
2023/07/25 03:46:02;;;;;;;1.75;1.45;;;23.00;62.80;;;;;;4976274;28;20022;-56
2023/07/25 03:48:27;;;;;;;1.30;1.20;;;23.00;63.40;;;;;;4979012;28;20041;-55
2023/07/25 03:50:53;;;;;;;2.80;1.27;;;22.90;62.60;;;;;;4979509;28;20030;-54
2023/07/25 03:53:18;;;;;;;3.10;1.30;;;23.00;62.70;;;;;;4978685;28;20034;-55
2023/07/25 03:55:44;;;;;;;2.45;1.33;;;22.90;62.60;;;;;;4978989;28;20034;-54
2023/07/25 03:58:09;;;;;;;1.52;0.90;;;22.90;62.60;;;;;;4976335;28;20523;-53
2023/07/25 04:00:35;;;;;;;2.25;1.30;;;22.90;62.60;;;;;;4977107;28;20960;-57
2023/07/25 04:03:00;;;;;;;2.67;1.33;;;22.90;62.60;;;;;;4981368;28;20184;-58
2023/07/25 04:05:26;;;;;;;3.00;1.17;;;23.00;62.60;;;;;;4977112;28;20114;-58
2023/07/25 04:07:51;;;;;;;1.60;1.10;;;22.90;62.60;;;;;;4980955;28;20085;-57
2023/07/25 04:10:17;;;;;;;1.80;1.25;;;22.90;62.60;;;;;;4977825;28;20531;-57
2023/07/25 04:12:42;;;;;;;1.30;1.20;;;22.90;62.50;;;;;;4975829;28;20027;-55
2023/07/25 04:15:08;;;;;;;1.45;1.10;;;22.90;62.50;;;;;;4979505;28;20035;-59
2023/07/25 04:17:34;;;;;;;3.00;1.02;;;23.00;62.50;;;;;;4978342;28;20102;-59
2023/07/25 04:20:00;;;;;;;1.58;1.25;;;22.90;62.50;;;;;;4978510;28;20097;-55
2023/07/25 04:22:25;;;;;;;1.60;1.17;;;22.90;62.40;;;;;;4979180;28;20511;-54
2023/07/25 04:24:51;;;;;;;1.83;1.48;;;22.90;62.40;;;;;;4978097;28;20034;-57
2023/07/25 04:27:16;;;;;;;2.45;1.38;;;22.90;62.40;;;;;;4975018;28;20150;-61
2023/07/25 04:29:42;;;;;;;1.98;1.30;;;22.90;62.40;;;;;;4980088;28;20095;-56
2023/07/25 04:32:08;;;;;;;2.95;1.05;;;22.90;62.40;;;;;;4980196;28;20042;-57
2023/07/25 04:34:33;;;;;;;1.80;1.30;;;22.90;62.40;;;;;;4977674;28;20030;-58
2023/07/25 04:36:59;;;;;;;1.85;1.30;;;22.90;62.40;;;;;;4980107;28;20038;-58
2023/07/25 04:39:24;;;;;;;1.77;1.33;;;23.00;62.30;;;;;;4977482;28;20034;-55
2023/07/25 04:41:50;;;;;;;1.92;1.20;;;23.00;62.30;;;;;;4974897;28;20327;-59
2023/07/25 04:44:15;;;;;;;1.42;1.15;;;23.00;62.20;;;;;;4977968;28;20053;-56
2023/07/25 04:46:41;;;;;;;1.80;1.10;;;23.00;62.10;;;;;;4978428;28;20034;-56
2023/07/25 04:49:11;;;;;;;1.73;0.90;;;23.00;62.10;;;;;;4977667;28;20085;-53
2023/07/25 04:51:37;;;;;;;1.83;1.20;;;23.10;61.90;;;;;;4977195;28;20023;-54
2023/07/25 04:54:03;;;;;;;3.20;1.38;;;23.10;62.00;;;;;;4974737;28;20026;-57
2023/07/25 04:56:28;;;;;;;2.00;1.10;;;23.10;62.00;;;;;;4974484;28;20076;-58
2023/07/25 04:58:54;;;;;;;1.67;1.15;;;23.10;62.00;;;;;;4973287;28;20531;-58
2023/07/25 05:01:19;;;;;;;1.75;1.23;;;23.10;62.00;;;;;;4976490;28;20022;-58
2023/07/25 05:03:45;;;;;;;2.63;1.30;;;23.10;62.00;;;;;;4979942;28;20030;-58
2023/07/25 05:06:11;;;;;;;2.28;1.40;;;23.10;62.00;;;;;;4970279;28;20031;-58
2023/07/25 05:08:37;;;;;;;1.23;1.13;;;23.00;61.90;;;;;;4976003;28;20031;-59
2023/07/25 05:11:02;;;;;;;1.35;1.25;;;23.10;62.00;;;;;;4976242;28;20503;-58
2023/07/25 05:13:28;;;;;;;1.05;0.93;;;23.10;62.00;;;;;;4975224;28;20498;-59
2023/07/25 05:15:54;;;;;;;1.42;1.00;;;23.00;61.90;;;;;;4978226;28;20050;-55
2023/07/25 05:18:19;;;;;;;1.25;1.15;;;23.10;62.00;;;;;;4975687;28;20019;-53
2023/07/25 05:20:45;;;;;;;2.15;1.25;;;23.00;61.90;;;;;;4974722;28;20038;-59
2023/07/25 05:23:10;;;;;;;2.80;1.30;;;23.10;62.00;;;;;;4973799;28;20638;-59
2023/07/25 05:25:36;;;;;;;1.67;1.23;;;23.10;62.70;;;;;;4974424;28;20127;-52
2023/07/25 05:28:01;;;;;;;1.25;1.05;;;23.10;62.00;;;;;;4970955;28;20440;-57
2023/07/25 05:30:27;;;;;;;1.10;0.95;;;23.00;62.00;;;;;;4975269;28;20598;-58
2023/07/25 05:32:52;;;;;;;1.77;1.23;;;23.00;62.00;;;;;;4976035;28;20629;-51
2023/07/25 05:35:18;;;;;;;1.95;1.20;;;23.00;62.00;;;;;;4979066;28;20657;-56
2023/07/25 05:37:44;;;;;;;3.00;1.40;;;23.00;62.00;;;;;;4978315;28;20042;-57
2023/07/25 05:40:09;;;;;;;2.08;1.10;;;23.00;61.90;;;;;;4974068;28;20030;-59
2023/07/25 05:42:35;;;;;;;3.97;1.35;;;23.00;61.90;;;;;;4976193;28;20465;-58
2023/07/25 05:45:00;;;;;;;1.77;1.20;;;23.00;61.90;;;;;;4976478;28;20034;-56
2023/07/25 05:47:28;;;;;;;4.57;1.35;;;23.00;62.00;;;;;;4976992;28;20150;-56
2023/07/25 05:49:54;;;;;;;1.20;1.00;;;23.00;62.00;;;;;;4977008;28;20144;-55
2023/07/25 05:52:19;;;;;;;1.98;1.40;;;23.00;62.00;;;;;;4974416;28;20027;-58
2023/07/25 05:54:45;;;;;;;1.67;1.10;;;23.00;61.90;;;;;;4973404;28;20110;-57
2023/07/25 05:57:11;;;;;;;1.85;1.38;;;23.00;62.00;;;;;;4973620;28;20034;-55
2023/07/25 05:59:36;;;;;;;1.50;1.00;;;23.00;62.00;;;;;;4977993;28;20041;-53
2023/07/25 06:02:03;;;;;;;3.30;1.25;;;23.00;61.90;;;;;;4980171;28;20047;-58
2023/07/25 06:04:29;;;;;;;1.75;1.10;;;23.00;61.90;;;;;;4977497;28;20045;-53
2023/07/25 06:06:55;;;;;;;2.17;1.30;;;23.00;61.90;;;;;;4964886;28;20030;-56
2023/07/25 06:09:21;;;;;;;2.47;1.38;;;23.00;61.90;;;;;;4974506;28;20034;-56
2023/07/25 06:11:46;;;;;;;1.38;1.17;;;23.00;62.00;;;;;;4978017;28;20069;-58
2023/07/25 06:14:12;;;;;;;1.63;1.40;;;23.00;62.00;;;;;;4975856;28;20057;-55
2023/07/25 06:16:37;;;;;;;3.38;1.30;;;23.00;62.00;;;;;;4965947;28;20519;-53
2023/07/25 06:19:03;;;;;;;3.85;1.48;;;23.00;62.00;;;;;;4971150;28;20030;-54
2023/07/25 06:21:29;;;;;;;1.80;1.63;;;23.00;62.00;;;;;;4975395;28;20109;-58
2023/07/25 06:23:54;;;;;;;1.52;1.02;;;22.90;61.90;;;;;;4973943;28;20023;-55
2023/07/25 06:26:20;;;;;;;1.88;1.40;;;23.00;62.00;;;;;;4972989;28;20054;-57
2023/07/25 06:28:46;;;;;;;2.42;1.27;;;23.00;62.20;;;;;;4974306;28;20019;-56
2023/07/25 06:31:11;;;;;;;3.08;1.33;;;23.00;62.10;;;;;;4975598;28;20037;-55
2023/07/25 06:33:37;;;;;;;2.97;1.38;;;22.90;62.80;;;;;;4976079;28;20034;-59
2023/07/25 06:36:02;;;;;;;2.70;1.42;;;22.90;62.60;;;;;;4972167;28;20067;-59
2023/07/25 06:38:28;;;;;;;2.38;1.63;;;22.90;62.50;;;;;;4975249;28;20026;-56
2023/07/25 06:40:53;;;;;;;2.15;1.48;;;22.70;61.80;;;;;;4971453;28;20077;-57
2023/07/25 06:43:19;;;;;;;3.42;1.50;;;22.80;62.10;;;;;;4976761;28;20146;-56
2023/07/25 06:45:44;;;;;;;3.30;1.67;;;22.80;62.10;;;;;;4974578;28;20381;-55
2023/07/25 06:48:10;;;;;;;1.90;1.65;;;22.90;62.10;;;;;;4973537;28;20386;-56
2023/07/25 06:50:35;;;;;;;2.15;1.77;;;22.80;62.00;;;;;;4972965;28;20037;-57
2023/07/25 06:53:01;;;;;;;3.20;1.63;;;22.80;62.00;;;;;;4975021;28;20038;-58
2023/07/25 06:55:27;;;;;;;3.08;2.35;;;22.80;62.00;;;;;;4976425;28;20039;-56
2023/07/25 06:57:52;;;;;;;8.25;3.90;;;22.80;61.60;;;;;;4984866;28;20033;-54
2023/07/25 07:00:18;;;;;;;2.97;2.25;;;22.70;60.30;;;;;;4982388;28;20054;-59
2023/07/25 07:02:44;;;;;;;3.53;2.35;;;22.60;61.80;;;;;;4981000;28;20043;-58
2023/07/25 07:05:10;;;;;;;4.60;2.50;;;22.70;61.90;;;;;;4977703;28;20034;-58
2023/07/25 07:07:35;;;;;;;3.97;2.05;;;22.70;61.60;;;;;;4977552;28;20031;-59
2023/07/25 07:10:01;;;;;;;5.32;2.20;;;22.60;61.50;;;;;;4979054;28;20187;-58
2023/07/25 07:12:26;;;;;;;2.15;1.60;;;22.60;61.70;;;;;;4980713;28;20030;-58
2023/07/25 07:14:52;;;;;;;4.80;1.90;;;22.70;61.80;;;;;;4980938;28;20042;-58
2023/07/25 07:17:18;;;;;;;4.57;2.17;;;22.60;61.70;;;;;;4975748;28;20043;-57
2023/07/25 07:19:43;;;;;;;5.32;1.75;;;22.70;61.80;;;;;;4976086;28;20084;-57
2023/07/25 07:22:09;;;;;;;2.60;2.08;;;22.70;61.80;;;;;;4977516;28;20042;-52
2023/07/25 07:24:35;;;;;;;2.72;2.13;;;22.60;61.60;;;;;;4975011;28;20057;-54
2023/07/25 07:27:00;;;;;;;4.00;3.13;;;22.60;61.60;;;;;;4980315;28;20027;-58
2023/07/25 07:29:26;;;;;;;5.05;2.33;;;22.60;61.70;;;;;;4980068;28;20042;-53
2023/07/25 07:31:51;;;;;;;3.55;2.10;;;22.60;61.70;;;;;;4980129;28;20037;-55
2023/07/25 07:34:18;;;;;;;3.65;2.40;;;22.60;62.40;;;;;;4979069;28;20129;-58
2023/07/25 07:36:44;;;;;;;4.32;2.17;;;22.70;62.00;;;;;;4980746;28;20113;-54
2023/07/25 07:39:13;;;;;;;4.10;2.13;;;22.60;62.70;;;;;;4979853;28;20088;-55
2023/07/25 07:41:38;;;;;;;11.23;2.97;;;22.70;62.80;;;;;;4976445;28;20043;-57
2023/07/25 07:44:04;;;;;;;6.00;2.33;;;22.70;62.40;;;;;;4976772;28;20126;-56
2023/07/25 07:46:31;;;;;;;9.20;2.90;;;22.70;62.40;;;;;;4977610;28;20031;-57
2023/07/25 07:49:00;;;;;;;9.48;2.60;;;22.70;62.40;;;;;;4975905;28;20686;-56
2023/07/25 07:51:26;;;;;;;7.35;3.28;;;22.70;62.20;;;;;;4979023;28;20034;-57
2023/07/25 07:53:52;;;;;;;15.90;2.80;;;22.70;62.20;;;;;;4973834;28;20133;-59
2023/07/25 07:56:18;;;;;;;12.88;3.80;;;22.80;62.40;;;;;;4980126;28;20049;-58
2023/07/25 07:58:44;;;;;;;9.77;2.92;;;22.80;62.40;;;;;;4977486;28;20035;-58
2023/07/25 08:01:18;;;;;;;16.98;3.97;;;22.80;62.30;;;;;;4978925;28;20039;-56
2023/07/25 08:03:44;;;;;;;15.05;2.40;;;22.80;62.30;;;;;;4975675;28;20061;-59
2023/07/25 08:06:10;;;;;;;13.30;3.70;;;22.80;62.20;;;;;;4976660;28;20031;-55
2023/07/25 08:08:36;;;;;;;5.47;3.30;;;22.80;62.10;;;;;;4973204;28;20031;-57
2023/07/25 08:11:01;;;;;;;7.65;3.20;;;22.60;61.40;;;;;;4976254;28;20046;-57
2023/07/25 08:13:27;;;;;;;11.18;4.07;;;22.50;61.90;;;;;;4973006;28;20053;-53
2023/07/25 08:15:52;;;;;;;5.30;2.78;;;22.50;61.30;;;;;;4969633;28;20396;-57
2023/07/25 08:18:18;;;;;;;4.22;2.25;;;22.50;61.70;;;;;;4972947;28;20050;-55
2023/07/25 08:20:47;;;;;;;8.18;3.13;;;22.60;61.70;;;;;;4974937;28;20026;-59
2023/07/25 08:23:13;;;;;;;4.75;2.42;;;22.60;61.90;;;;;;4968901;28;20069;-58
2023/07/25 08:25:39;;;;;;;12.40;3.10;;;22.70;61.80;;;;;;4973999;28;20431;-58
2023/07/25 08:28:05;;;;;;;16.15;3.30;;;22.70;61.80;;;;;;4974852;28;20038;-59
2023/07/25 08:30:31;;;;;;;10.38;3.22;;;22.70;62.00;;;;;;4990988;28;20484;-60
2023/07/25 08:32:57;;;;;;;7.72;2.70;;;22.70;62.00;;;;;;4976352;28;20031;-59
2023/07/25 08:35:23;;;;;;;4.47;2.35;;;22.70;61.80;;;;;;4975516;28;20412;-57
2023/07/25 08:37:49;;;;;;;6.68;3.13;;;22.70;61.70;;;;;;4972025;28;20038;-55
2023/07/25 08:40:15;;;;;;;6.63;2.95;;;22.70;61.90;;;;;;4971837;28;20240;-59
2023/07/25 08:42:45;;;;;;;3.10;2.53;;;22.80;62.20;;;;;;4971858;28;20125;-59
2023/07/25 08:45:10;;;;;;;4.07;2.22;;;22.80;62.00;;;;;;4973581;28;20038;-55
2023/07/25 08:47:39;;;;;;;2.50;2.08;;;22.80;61.80;;;;;;4979107;28;20597;-55
2023/07/25 08:50:16;;;;;;;4.53;2.80;;;22.80;61.80;;;;;;4974565;28;20092;-58
2023/07/25 08:52:51;;;;;;;3.95;2.40;;;22.80;61.90;;;;;;4974144;28;20382;-57
2023/07/25 08:55:17;;;;;;;5.25;2.30;;;22.80;62.10;;;;;;4973173;28;20059;-56
2023/07/25 08:57:44;;;;;;;7.60;2.75;;;22.70;62.40;;;;;;4978182;28;20120;-56
2023/07/25 09:00:12;;;;;;;3.58;2.40;;;22.70;62.30;;;;;;4972571;28;20055;-58
2023/07/25 09:02:38;;;;;;;4.32;2.67;;;22.70;62.30;;;;;;4976567;28;20053;-57
2023/07/25 09:05:05;;;;;;;6.63;2.72;;;22.70;63.20;;;;;;4976818;28;20118;-58
2023/07/25 09:07:30;;;;;;;5.78;3.90;;;22.60;62.70;;;;;;4977101;28;20038;-58
2023/07/25 09:09:56;;;;;;;4.95;2.85;;;22.60;62.60;;;;;;4973770;28;20045;-58
2023/07/25 09:12:22;;;;;;;3.22;2.88;;;22.60;62.40;;;;;;4973198;28;20027;-60
2023/07/25 09:14:48;;;;;;;6.70;2.88;;;22.50;61.80;;;;;;4971976;28;20035;-58
2023/07/25 09:17:13;;;;;;;3.67;2.42;;;22.50;60.80;;;;;;4975292;28;20149;-58
2023/07/25 09:19:41;;;;;;;3.78;2.47;;;22.50;60.70;;;;;;4972315;28;20101;-55
2023/07/25 09:22:31;;;;;;;4.55;2.65;;;22.50;60.80;;;;;;4972952;28;20161;-58
2023/07/25 09:24:58;;;;;;;7.25;2.90;;;22.50;60.80;;;;;;4977354;28;20038;-59
2023/07/25 09:27:25;;;;;;;5.72;2.63;;;22.50;60.70;;;;;;4976906;28;20034;-56
2023/07/25 09:29:52;;;;;;;4.43;2.80;;;22.40;60.80;;;;;;4976690;28;20046;-56
2023/07/25 09:32:25;;;;;;;3.08;2.58;;;22.50;60.50;;;;;;4978183;28;20045;-58
2023/07/25 09:34:59;;;;;;;3.17;2.88;;;22.50;60.50;;;;;;4975836;28;20944;-56
2023/07/25 09:37:25;;;;;;;3.45;2.45;;;22.50;60.30;;;;;;4974801;28;20080;-58
2023/07/25 09:39:51;;;;;;;5.63;3.00;;;22.50;60.20;;;;;;4972093;28;20038;-53
2023/07/25 09:42:19;;;;;;;6.07;3.20;;;22.50;60.00;;;;;;4971626;28;20038;-56
2023/07/25 09:44:50;;;;;;;3.75;2.80;;;22.40;59.10;;;;;;4990127;28;20031;-58
2023/07/25 09:47:27;;;;;;;3.97;2.45;;;22.40;59.70;;;;;;4977868;28;20042;-55
2023/07/25 09:49:54;;;;;;;3.65;3.03;;;22.40;60.00;;;;;;4973749;28;20604;-59
2023/07/25 09:52:22;;;;;;;3.80;2.90;;;22.40;60.30;;;;;;4972096;28;20042;-57
2023/07/25 09:54:48;;;;;;;3.55;2.80;;;22.50;60.50;;;;;;4985770;28;20492;-57
2023/07/25 09:57:13;;;;;;;4.45;3.08;;;22.40;60.40;;;;;;4976796;28;20106;-58
2023/07/25 09:59:39;;;;;;;4.13;2.92;;;22.40;60.00;;;;;;4975923;28;20073;-58
2023/07/25 10:02:05;;;;;;;3.72;2.63;;;22.30;59.70;;;;;;4976394;28;20038;-58
2023/07/25 10:04:34;;;;;;;2.60;2.40;;;22.30;59.40;;;;;;4975346;28;20042;-59
2023/07/25 10:07:01;;;;;;;2.83;2.60;;;22.30;59.30;;;;;;4970462;28;20045;-58
2023/07/25 10:09:28;;;;;;;3.53;3.05;;;22.30;59.30;;;;;;4973732;28;20121;-57
2023/07/25 10:11:53;;;;;;;3.53;2.63;;;22.30;59.50;;;;;;4971664;28;20070;-56
2023/07/25 10:14:19;;;;;;;2.83;2.55;;;22.30;59.20;;;;;;4971180;28;20165;-58
2023/07/25 10:16:46;;;;;;;4.15;2.92;;;22.40;59.30;;;;;;4970807;28;20022;-56
2023/07/25 10:19:11;;;;;;;3.10;2.70;;;22.30;59.50;;;;;;4977204;28;20026;-58
2023/07/25 10:21:52;;;;;;;3.45;2.80;;;22.30;59.60;;;;;;4976797;28;20022;-58
2023/07/25 10:24:19;;;;;;;3.42;2.72;;;22.30;59.80;;;;;;4975458;28;20570;-58
2023/07/25 10:26:55;;;;;;;3.42;2.67;;;22.30;60.00;;;;;;4975608;28;20107;-57
2023/07/25 10:29:46;;;;;;;2.92;2.70;;;22.40;59.90;;;;;;4975004;28;20038;-55
2023/07/25 10:32:17;;;;;;;3.25;2.85;;;22.40;59.90;;;;;;4973605;28;20089;-56
2023/07/25 10:34:47;;;;;;;4.78;3.50;;;22.40;59.90;;;;;;4973297;28;20057;-57
2023/07/25 10:37:42;;;;;;;3.92;2.40;;;22.40;60.00;;;;;;4972172;28;20031;-58
2023/07/25 10:40:14;;;;;;;4.75;2.60;;;22.40;60.10;;;;;;4969923;28;20125;-57
2023/07/25 10:42:58;;;;;;;5.03;3.15;;;22.40;60.30;;;;;;4974529;28;20118;-55
2023/07/25 10:45:29;;;;;;;3.60;2.53;;;22.40;60.30;;;;;;4980582;28;20041;-58
2023/07/25 10:47:58;;;;;;;2.95;2.70;;;22.30;60.40;;;;;;4976681;28;20121;-56
2023/07/25 10:50:47;;;;;;;2.85;2.55;;;22.40;60.10;;;;;;4980097;28;20084;-56
2023/07/25 10:53:20;;;;;;;3.90;2.78;;;22.30;60.10;;;;;;4966503;28;20042;-55
2023/07/25 10:56:04;;;;;;;3.35;2.83;;;22.30;60.10;;;;;;4971139;28;20162;-56
2023/07/25 10:58:30;;;;;;;3.70;2.35;;;22.30;60.00;;;;;;4976776;28;20120;-54
2023/07/25 11:00:57;;;;;;;3.45;2.80;;;22.30;60.00;;;;;;4975289;28;20434;-57
2023/07/25 11:03:31;;;;;;;3.63;2.45;;;22.40;60.10;;;;;;4970909;28;20043;-56
2023/07/25 11:06:08;;;;;;;3.03;2.70;;;22.30;59.90;;;;;;4974678;28;20030;-57
2023/07/25 11:08:35;;;;;;;4.72;2.75;;;22.30;60.50;;;;;;4973700;28;20038;-54
2023/07/25 11:11:07;;;;;;;4.65;2.38;;;22.30;60.70;;;;;;4974342;28;20570;-55
2023/07/25 11:13:34;;;;;;;5.13;3.28;;;22.30;61.70;;;;;;4973962;28;20053;-56
2023/07/25 11:16:05;;;;;;;4.13;2.80;;;22.20;62.10;;;;;;4977057;28;20049;-54
2023/07/25 11:18:36;;;;;;;3.15;2.70;;;22.20;61.80;;;;;;4980038;28;20034;-56
2023/07/25 11:21:03;;;;;;;3.45;2.80;;;22.20;62.20;;;;;;4966092;28;20496;-55
2023/07/25 11:23:29;;;;;;;4.70;3.00;;;22.30;62.50;;;;;;4972010;28;20562;-55
2023/07/25 11:25:57;;;;;;;3.42;3.10;;;22.30;63.20;;;;;;4977737;28;20148;-55
2023/07/25 11:28:22;;;;;;;4.85;2.97;;;22.30;62.90;;;;;;4972853;28;20034;-56
2023/07/25 11:30:48;;;;;;;3.28;2.78;;;22.30;62.40;;;;;;4976256;28;20162;-57
2023/07/25 11:33:13;;;;;;;3.85;2.92;;;22.30;62.50;;;;;;4967501;28;20031;-56
2023/07/25 11:35:39;;;;;;;3.95;2.60;;;22.20;62.40;;;;;;4970436;28;20054;-56
2023/07/25 11:38:05;;;;;;;4.22;2.85;;;22.20;62.60;;;;;;4971252;28;20754;-59
2023/07/25 11:40:31;;;;;;;7.88;3.03;;;22.10;62.60;;;;;;4983750;28;20066;-58
2023/07/25 11:42:57;;;;;;;5.63;3.55;;;22.20;62.90;;;;;;4976401;28;20042;-58
2023/07/25 11:45:24;;;;;;;3.83;2.97;;;22.20;63.20;;;;;;4979184;28;20026;-55
2023/07/25 11:47:50;;;;;;;3.33;3.03;;;22.20;63.10;;;;;;4978906;28;20161;-55
2023/07/25 11:50:18;;;;;;;3.63;2.97;;;22.30;63.20;;;;;;4981611;28;20060;-57
2023/07/25 11:52:45;;;;;;;2.75;2.55;;;22.20;63.20;;;;;;4974340;28;20402;-57
2023/07/25 11:55:12;;;;;;;2.50;2.30;;;22.20;63.60;;;;;;4975080;28;20026;-55
2023/07/25 11:57:42;;;;;;;5.32;4.57;;;22.20;63.90;;;;;;4977501;28;20056;-58
2023/07/25 12:00:11;;;;;;;4.75;2.75;;;22.10;64.20;;;;;;4977837;28;20035;-57
2023/07/25 12:02:40;;;;;;;4.60;2.90;;;22.10;64.60;;;;;;4978171;28;20373;-55
2023/07/25 12:05:07;;;;;;;5.25;3.35;;;22.10;64.60;;;;;;4973453;28;20475;-56
2023/07/25 12:07:52;;;;;;;3.33;2.72;;;22.20;64.40;;;;;;4974953;28;20361;-57
2023/07/25 12:10:33;;;;;;;4.05;2.80;;;22.30;64.70;;;;;;4975454;28;20394;-55
2023/07/25 12:13:03;;;;;;;5.10;3.38;;;22.20;65.30;;;;;;4980178;28;20105;-57
2023/07/25 12:15:46;;;;;;;3.35;3.03;;;22.20;65.10;;;;;;4980785;28;20042;-55
2023/07/25 12:18:31;;;;;;;4.18;2.67;;;22.20;65.10;;;;;;4980470;28;20121;-54
2023/07/25 12:20:59;;;;;;;;;;;22.20;65.30;;;;;;4978431;28;20031;-57
2023/07/25 12:23:27;;;;;;;3.10;2.83;;;22.00;65.10;;;;;;4980516;28;20515;-58
2023/07/25 12:25:53;;;;;;;3.20;2.40;;;22.10;66.10;;;;;;4978161;28;20745;-58
2023/07/25 12:28:19;;;;;;;3.65;2.60;;;22.10;65.80;;;;;;4977802;28;20042;-55
2023/07/25 12:30:44;;;;;;;4.70;2.75;;;22.10;64.90;;;;;;4976425;28;20031;-53
2023/07/25 12:33:10;;;;;;;4.25;2.72;;;22.10;65.40;;;;;;4974629;28;20496;-58
2023/07/25 12:35:35;;;;;;;3.75;1.95;;;22.10;65.70;;;;;;4976307;28;20515;-57
2023/07/25 12:38:01;;;;;;;2.90;2.40;;;22.10;65.30;;;;;;4977429;28;20132;-58
2023/07/25 12:40:27;;;;;;;3.22;2.60;;;22.10;65.40;;;;;;4974860;28;20030;-56
2023/07/25 12:42:52;;;;;;;2.83;2.30;;;22.10;65.50;;;;;;4977582;28;20035;-55
2023/07/25 12:45:18;;;;;;;4.93;2.58;;;22.10;65.60;;;;;;4979726;28;20412;-56